LGZALGSM

Guest
Details From LGZA - Zakinthos Dionysios Solomos
To LGSM - Samos
Flight Number -
Tags Routegen Generated
Created
Modified
Stats Distance 291 nm / 539 km
Max Altitude 2,600 ft / 792 m
Waypoints 10
Social Downloads 0
Likes 0
Share

Download

Looking for another format? Having issues loading an existing format? Contact us
Advertisement - Login to hide

Notes

Departing runway 16 LGZA. Arriving runway 9 LGSM.

Route

LGZA +37.67_+020.91 +37.63_+020.96 +37.59_+021.02 +37.58_+021.09 +37.59_+021.16 +37.65_+022.85 +37.68_+024.54 +37.69_+026.81 LGSM

ID Type Via Altitude (ft/m) Position (lat/lon) Dist (leg/tot) Name
O LGZA APT - 0 / 0 37.74118 / 20.88775 - / 0 nm
+37.67_+020.91 LATLON - 1,430 / 436 37.67177 / 20.91364 4 / 4 nm
+37.63_+020.96 LATLON - 2,600 / 792 37.62520 / 20.95706 3 / 7 nm
+37.59_+021.02 LATLON - 2,600 / 792 37.59318 / 21.01795 3 / 11 nm
+37.58_+021.09 LATLON - 2,600 / 792 37.57960 / 21.08897 3 / 14 nm
+37.59_+021.16 LATLON - 2,600 / 792 37.58608 / 21.16156 3 / 18 nm
+37.65_+022.85 LATLON - 2,600 / 792 37.64569 / 22.84871 80 / 98 nm
+37.68_+024.54 LATLON - 2,600 / 792 37.68234 / 24.53869 80 / 178 nm
+37.69_+026.81 LATLON - 1,430 / 436 37.69470 / 26.80834 107 / 286 nm
O LGSM APT - 0 / 0 37.68966 / 26.89957 4 / 291 nm

Altitude Profile

Advertisement - Login to hide

Weather


0- 5 10 15 20 25 30 35+ Temperature / °C

Clouds and Precipitation
Forecast for 2020-09-27 18:00 UTC. Updated 3 hours ago

Ground ~20,000 ft ~40,000 ft Winds

LGZA

Details ICAO LGZA (ZTH)
Name Zakynthos Dionysios Solomos
Region Greece
Timezone Europe/Athens (UTC+3.0)
Stats Elevation 14 ft / 4 m (AMSL)
Location 37.751100° 20.884200°
Runways 1
Magnetic Variation 4.343° E

METAR

LGZA 271750Z 19004KT 9999 FEW018 SCT070 23/17 Q1014

Decode

TAF

Not found

Departure Runways

ID Width Length Bearing (true/mag) Surface Threshold Overrun Markings Lighting
16 148 ft / 45 m 7,338 ft / 2,237 m 163.54° / 159.20° ASPHALT 650 ft / 198 m 207 ft / 63 m PREC-APP EDGE THRESHOLD REIL-OMNI
34 148 ft / 45 m 7,338 ft / 2,237 m 343.55° / 339.20° ASPHALT 676 ft / 206 m 318 ft / 97 m PREC-APP EDGE THRESHOLD

LGSM

Details ICAO LGSM (SMI)
Name SAMOS
Region Greece
Timezone Europe/Athens (UTC+3.0)
Stats Elevation 62 ft / 19 m (AMSL)
Location 37.689100° 26.912800°
Runways 1
Magnetic Variation 5.070° E

METAR

LGSM 271750Z 36002KT 9999 FEW020 25/18 Q1017

Decode

TAF

Not found

Destination Runways

ID Width Length Bearing (true/mag) Surface Threshold Overrun Markings Lighting
09 192 ft / 58 m 6,712 ft / 2,046 m 94.28° / 89.21° ASPHALT 0 ft / 0 m 0 ft / 0 m APP CENTERLINE EDGE THRESHOLD MALSF
27 192 ft / 58 m 6,712 ft / 2,046 m 274.29° / 269.22° ASPHALT 243 ft / 74 m 0 ft / 0 m APP CENTERLINE EDGE THRESHOLD MALSF

Popular Alternatives